createdAt,value
2022-11-25T00:00:50.650Z,2.79
2022-11-25T00:02:52.180Z,2.78
2022-11-25T00:04:53.689Z,2.79
2022-11-25T00:06:55.157Z,2.79
2022-11-25T00:08:59.063Z,2.79
2022-11-25T00:11:01.752Z,2.79
2022-11-25T00:13:03.889Z,2.78
2022-11-25T00:15:05.781Z,2.77
2022-11-25T00:17:07.304Z,2.77
2022-11-25T00:19:10.019Z,2.75
2022-11-25T00:21:14.418Z,2.73
2022-11-25T00:23:15.861Z,2.71
2022-11-25T00:25:17.310Z,2.69
2022-11-25T00:27:18.744Z,2.69
2022-11-25T00:29:20.250Z,2.68
2022-11-25T00:31:26.967Z,2.67
2022-11-25T00:33:28.480Z,2.68
2022-11-25T00:35:29.965Z,2.67
2022-11-25T00:37:32.475Z,2.67
2022-11-25T00:39:33.907Z,2.65
2022-11-25T00:41:53.869Z,2.66
2022-11-25T00:44:13.538Z,2.65
2022-11-25T00:46:15.070Z,2.64
2022-11-25T00:48:16.529Z,2.64
2022-11-25T00:50:18.034Z,2.63
2022-11-25T00:52:25.751Z,2.64
2022-11-25T00:54:27.217Z,2.64
2022-11-25T00:56:30.312Z,2.66
2022-11-25T00:58:31.772Z,2.67
2022-11-25T01:00:33.231Z,2.67
2022-11-25T01:02:34.807Z,2.66
2022-11-25T01:04:36.726Z,2.66
2022-11-25T01:06:38.443Z,2.66
2022-11-25T01:08:39.891Z,2.66
2022-11-25T01:10:41.338Z,2.66
2022-11-25T01:12:42.774Z,2.66
2022-11-25T01:14:44.267Z,2.67
2022-11-25T01:16:45.814Z,2.69
2022-11-25T01:18:47.346Z,2.68
2022-11-25T01:20:48.910Z,2.68
2022-11-25T01:22:52.292Z,2.69
2022-11-25T01:24:53.719Z,2.68
2022-11-25T01:26:56.075Z,2.68
2022-11-25T01:29:00.107Z,2.71
2022-11-25T01:31:06.010Z,2.71
2022-11-25T01:33:07.511Z,2.73
2022-11-25T01:35:09.294Z,2.71
2022-11-25T01:37:11.652Z,2.72
2022-11-25T01:39:30.150Z,2.71
2022-11-25T01:41:34.925Z,2.68
2022-11-25T01:43:36.736Z,2.68
2022-11-25T01:45:38.656Z,2.68
2022-11-25T01:47:40.217Z,2.69
2022-11-25T01:50:04.011Z,2.70
2022-11-25T01:52:35.969Z,2.71
2022-11-25T01:54:48.590Z,2.73
2022-11-25T01:56:56.995Z,2.74
2022-11-25T01:58:59.212Z,2.74
2022-11-25T02:01:00.733Z,2.75
2022-11-25T02:03:02.418Z,2.76
2022-11-25T02:05:09.518Z,2.78
2022-11-25T02:07:26.150Z,2.80
2022-11-25T02:09:27.854Z,2.81
2022-11-25T02:11:32.043Z,2.84
2022-11-25T02:13:33.950Z,2.85
2022-11-25T02:15:35.426Z,2.86
2022-11-25T02:17:36.960Z,2.87
2022-11-25T02:20:04.339Z,2.86
2022-11-25T02:22:10.261Z,2.86
2022-11-25T02:24:26.503Z,2.88
2022-11-25T02:26:28.019Z,2.89
2022-11-25T02:28:31.515Z,2.89
2022-11-25T02:30:33.877Z,2.87
2022-11-25T02:32:35.364Z,2.86
2022-11-25T02:34:46.715Z,2.86
2022-11-25T02:36:49.118Z,2.84
2022-11-25T02:38:59.204Z,2.86
2022-11-25T02:41:05.125Z,2.87
2022-11-25T02:43:06.680Z,2.87
2022-11-25T02:45:12.869Z,2.90
2022-11-25T02:47:14.444Z,2.91
2022-11-25T02:49:15.941Z,2.92
2022-11-25T02:51:20.735Z,2.96
2022-11-25T02:53:22.406Z,2.97
2022-11-25T02:55:23.900Z,2.98
2022-11-25T02:57:25.334Z,2.99
2022-11-25T02:59:26.791Z,2.99
2022-11-25T03:01:29.898Z,3.01
2022-11-25T03:03:31.591Z,3.03
2022-11-25T03:05:33.273Z,3.05
2022-11-25T03:07:34.771Z,3.08
2022-11-25T03:09:36.269Z,3.11
2022-11-25T03:11:56.377Z,3.13
2022-11-25T03:13:57.827Z,3.15
2022-11-25T03:15:59.283Z,3.18
2022-11-25T03:18:01.701Z,3.21
2022-11-25T03:20:04.771Z,3.23
2022-11-25T03:22:06.258Z,3.24
2022-11-25T03:24:07.855Z,3.28
2022-11-25T03:26:09.324Z,3.29
2022-11-25T03:28:10.781Z,3.32
2022-11-25T03:30:15.991Z,3.32
2022-11-25T03:32:17.612Z,3.33
2022-11-25T03:34:19.139Z,3.34
2022-11-25T03:36:20.822Z,3.34
2022-11-25T03:38:22.268Z,3.36
2022-11-25T03:40:24.032Z,3.36
2022-11-25T03:42:25.502Z,3.38
2022-11-25T03:44:27.008Z,3.39
2022-11-25T03:46:28.523Z,3.41
2022-11-25T03:48:29.982Z,3.43
2022-11-25T03:50:31.459Z,3.44
2022-11-25T03:52:32.936Z,3.46
2022-11-25T03:54:34.807Z,3.47
2022-11-25T03:56:36.585Z,3.48
2022-11-25T03:58:38.018Z,3.49
2022-11-25T04:00:39.973Z,3.50
2022-11-25T04:02:41.558Z,3.50
2022-11-25T04:04:43.185Z,3.51
2022-11-25T04:06:44.699Z,3.52
2022-11-25T04:08:46.639Z,3.53
2022-11-25T04:10:51.622Z,3.55
2022-11-25T04:12:53.777Z,3.56
2022-11-25T04:14:55.281Z,3.56
2022-11-25T04:16:56.926Z,3.56
2022-11-25T04:18:58.401Z,3.57
2022-11-25T04:20:59.838Z,3.57
2022-11-25T04:23:01.367Z,3.58
2022-11-25T04:25:02.921Z,3.60
2022-11-25T04:27:04.400Z,3.62
2022-11-25T04:29:05.912Z,3.63
2022-11-25T04:31:08.760Z,3.65
2022-11-25T04:33:10.209Z,3.66
2022-11-25T04:35:11.739Z,3.68
2022-11-25T04:37:13.239Z,3.69
2022-11-25T04:39:14.752Z,3.71
2022-11-25T04:41:16.225Z,3.72
2022-11-25T04:43:17.758Z,3.73
2022-11-25T04:45:24.588Z,3.75
2022-11-25T04:47:26.326Z,3.76
2022-11-25T04:49:27.788Z,3.78
2022-11-25T04:51:29.253Z,3.79
2022-11-25T04:53:30.719Z,3.80
2022-11-25T04:55:32.229Z,3.82
2022-11-25T04:57:33.669Z,3.84
2022-11-25T04:59:41.027Z,3.85
2022-11-25T05:01:42.572Z,3.88
2022-11-25T05:03:49.628Z,3.89
2022-11-25T05:05:53.342Z,3.90
2022-11-25T05:07:54.879Z,3.92
2022-11-25T05:09:57.164Z,3.93
2022-11-25T05:11:58.632Z,3.95
2022-11-25T05:14:00.103Z,3.97
2022-11-25T05:16:01.571Z,3.98
2022-11-25T05:18:03.044Z,3.99
2022-11-25T05:20:05.539Z,4.00
2022-11-25T05:22:11.109Z,4.01
2022-11-25T05:24:12.717Z,4.03
2022-11-25T05:26:14.161Z,4.04
2022-11-25T05:28:15.748Z,4.05
2022-11-25T05:30:17.262Z,4.06
2022-11-25T05:32:18.882Z,4.06
2022-11-25T05:34:20.454Z,4.09
2022-11-25T05:36:21.950Z,4.10
2022-11-25T05:38:23.518Z,4.12
2022-11-25T05:40:25.015Z,4.14
2022-11-25T05:42:26.441Z,4.14
2022-11-25T05:44:28.146Z,4.15
2022-11-25T05:46:29.702Z,4.17
2022-11-25T05:48:31.205Z,4.18
2022-11-25T05:50:32.660Z,4.21
2022-11-25T05:52:34.150Z,4.22
2022-11-25T05:54:35.833Z,4.23
2022-11-25T05:56:37.606Z,4.25
2022-11-25T05:58:39.121Z,4.26
2022-11-25T06:00:42.633Z,4.27
2022-11-25T06:02:44.325Z,4.30
2022-11-25T06:04:45.904Z,4.31
2022-11-25T06:06:47.374Z,4.31
2022-11-25T06:08:48.873Z,4.34
2022-11-25T06:10:50.530Z,4.36
2022-11-25T06:12:53.708Z,4.37
2022-11-25T06:14:55.184Z,4.38
2022-11-25T06:16:56.633Z,4.40
2022-11-25T06:18:58.083Z,4.41
2022-11-25T06:20:59.846Z,4.43
2022-11-25T06:23:01.335Z,4.45
2022-11-25T06:25:04.045Z,4.46
2022-11-25T06:27:05.717Z,4.47
2022-11-25T06:29:07.212Z,4.49
2022-11-25T06:31:12.122Z,4.51
2022-11-25T06:33:13.674Z,4.51
2022-11-25T06:35:15.363Z,4.54
2022-11-25T06:37:16.855Z,4.55
2022-11-25T06:39:18.299Z,4.56
2022-11-25T06:41:21.074Z,4.56
2022-11-25T06:43:22.509Z,4.57
2022-11-25T06:45:23.989Z,4.59
2022-11-25T06:47:25.879Z,4.62
2022-11-25T06:49:29.168Z,4.62
2022-11-25T06:51:31.010Z,4.65
2022-11-25T06:53:33.544Z,4.66
2022-11-25T06:55:35.068Z,4.67
2022-11-25T06:57:36.576Z,4.69
2022-11-25T06:59:38.472Z,4.70
2022-11-25T07:01:40.029Z,4.71
2022-11-25T07:03:42.634Z,4.72
2022-11-25T07:05:44.171Z,4.72
2022-11-25T07:07:45.694Z,4.72
2022-11-25T07:09:47.682Z,4.72
2022-11-25T07:11:49.451Z,4.73
2022-11-25T07:13:56.249Z,4.73
2022-11-25T07:16:01.034Z,4.74
2022-11-25T07:18:02.560Z,4.74
2022-11-25T07:20:04.483Z,4.75
2022-11-25T07:22:05.972Z,4.76
2022-11-25T07:24:08.156Z,4.77
2022-11-25T07:26:24.475Z,4.78
2022-11-25T07:28:25.918Z,4.79
2022-11-25T07:32:49.101Z,4.81
2022-11-25T07:34:51.525Z,4.83
2022-11-25T07:36:53.017Z,4.85
2022-11-25T07:38:54.520Z,4.87
2022-11-25T07:40:56.018Z,4.89
2022-11-25T07:42:57.455Z,4.91
2022-11-25T07:44:59.036Z,4.92
2022-11-25T07:47:00.815Z,4.94
2022-11-25T07:49:05.653Z,4.96
2022-11-25T07:51:16.034Z,4.98
2022-11-25T07:53:17.480Z,5.00
2022-11-25T07:55:18.927Z,5.03
2022-11-25T07:57:20.857Z,5.05
2022-11-25T07:59:23.536Z,5.08
2022-11-25T08:01:26.690Z,5.10
2022-11-25T08:03:28.155Z,5.11
2022-11-25T08:05:29.586Z,5.14
2022-11-25T08:07:36.288Z,5.15
2022-11-25T08:09:38.596Z,5.17
2022-11-25T08:11:41.116Z,5.19
2022-11-25T08:13:43.475Z,5.22
2022-11-25T08:15:44.948Z,5.23
2022-11-25T08:17:46.437Z,5.24
2022-11-25T08:19:47.886Z,5.27
2022-11-25T08:21:49.363Z,5.30
2022-11-25T08:23:52.521Z,5.33
2022-11-25T08:25:54.084Z,5.35
2022-11-25T08:27:55.768Z,5.38
2022-11-25T08:29:57.234Z,5.39
2022-11-25T08:31:58.777Z,5.41
2022-11-25T08:34:00.688Z,5.43
2022-11-25T08:36:02.166Z,5.46
2022-11-25T08:38:08.833Z,5.49
2022-11-25T08:40:10.956Z,5.50
2022-11-25T08:42:12.691Z,5.52
2022-11-25T08:44:14.366Z,5.57
2022-11-25T08:46:20.564Z,5.59
2022-11-25T08:48:22.298Z,5.62
2022-11-25T08:50:26.519Z,5.63
2022-11-25T08:52:29.179Z,5.66
2022-11-25T08:54:30.731Z,5.68
2022-11-25T08:56:32.303Z,5.71
2022-11-25T08:58:34.764Z,5.74
2022-11-25T09:00:37.775Z,5.76
2022-11-25T09:02:39.419Z,5.79
2022-11-25T09:04:40.997Z,5.82
2022-11-25T09:06:42.487Z,5.85
2022-11-25T09:08:44.487Z,5.87
2022-11-25T09:10:46.157Z,5.87
2022-11-25T09:12:47.644Z,5.88
2022-11-25T09:14:49.185Z,5.90
2022-11-25T09:16:50.673Z,5.94
2022-11-25T09:18:55.823Z,5.98
2022-11-25T09:20:58.730Z,6.03
2022-11-25T09:23:01.538Z,6.05
2022-11-25T09:25:03.222Z,6.07
2022-11-25T09:27:05.068Z,6.10
2022-11-25T09:29:07.937Z,6.10
2022-11-25T09:31:09.874Z,6.12
2022-11-25T09:33:11.436Z,6.16
2022-11-25T09:35:12.866Z,6.18
2022-11-25T09:37:14.546Z,6.22
2022-11-25T09:39:16.025Z,6.27
2022-11-25T09:41:54.213Z,6.33
2022-11-25T09:44:40.486Z,6.37
2022-11-25T09:46:59.526Z,6.39
2022-11-25T09:49:22.722Z,6.42
2022-11-25T09:51:44.594Z,6.44
2022-11-25T09:53:56.840Z,6.45
2022-11-25T09:56:03.240Z,6.47
2022-11-25T09:58:26.455Z,6.49
2022-11-25T10:00:40.959Z,6.53
2022-11-25T10:02:58.497Z,6.58
2022-11-25T10:05:18.566Z,6.65
2022-11-25T10:07:28.789Z,6.70
2022-11-25T10:09:34.180Z,6.76
2022-11-25T10:11:38.656Z,6.79
2022-11-25T10:14:37.546Z,6.87
2022-11-25T10:16:58.406Z,6.96
2022-11-25T10:19:21.617Z,6.99
2022-11-25T10:21:23.078Z,7.01
2022-11-25T10:23:30.578Z,7.04
2022-11-25T10:25:38.641Z,7.05
2022-11-25T10:27:58.245Z,7.08
2022-11-25T10:30:05.071Z,7.08
2022-11-25T10:32:33.209Z,7.09
2022-11-25T10:34:46.850Z,7.12
2022-11-25T10:36:51.339Z,7.13
2022-11-25T10:38:57.659Z,7.16
2022-11-25T10:40:59.322Z,7.17
2022-11-25T10:43:10.017Z,7.20
2022-11-25T10:45:12.013Z,7.22
2022-11-25T10:47:36.803Z,7.25
2022-11-25T10:49:50.517Z,7.28
2022-11-25T10:51:51.996Z,7.29
2022-11-25T10:54:27.644Z,7.32
2022-11-25T10:56:29.555Z,7.33
2022-11-25T10:58:31.001Z,7.36
2022-11-25T11:00:38.248Z,7.39
2022-11-25T11:02:41.522Z,7.42
2022-11-25T11:04:51.240Z,7.47
2022-11-25T11:06:52.698Z,7.55
2022-11-25T11:08:54.162Z,7.61
2022-11-25T11:11:17.106Z,7.65
2022-11-25T11:13:21.777Z,7.69
2022-11-25T11:15:34.007Z,7.73
2022-11-25T11:17:37.333Z,7.76
2022-11-25T11:19:39.435Z,7.81
2022-11-25T11:21:42.602Z,7.85
2022-11-25T11:23:49.799Z,7.88
2022-11-25T11:26:34.542Z,7.93
2022-11-25T11:28:38.782Z,7.97
2022-11-25T11:30:56.360Z,8.02
2022-11-25T11:33:26.775Z,8.07
2022-11-25T11:35:41.925Z,8.16
2022-11-25T11:37:45.280Z,8.23
2022-11-25T11:40:11.183Z,8.33
2022-11-25T11:42:19.184Z,8.41
2022-11-25T11:44:41.148Z,8.49
2022-11-25T11:46:55.029Z,8.58
2022-11-25T11:49:19.453Z,8.68
2022-11-25T11:51:45.148Z,8.75
2022-11-25T11:54:13.756Z,8.81
2022-11-25T11:56:34.935Z,8.85
2022-11-25T11:58:46.222Z,8.88
2022-11-25T12:01:03.259Z,8.92
2022-11-25T12:03:22.583Z,8.95
2022-11-25T12:05:28.238Z,9.00
2022-11-25T12:07:47.675Z,9.04
2022-11-25T12:10:06.257Z,9.08
2022-11-25T12:12:14.399Z,9.10
2022-11-25T12:14:42.274Z,9.13
2022-11-25T12:16:53.158Z,9.14
2022-11-25T12:19:21.534Z,9.14
2022-11-25T12:21:48.904Z,9.15
2022-11-25T12:24:06.801Z,9.18
2022-11-25T12:26:14.982Z,9.18
2022-11-25T12:28:28.713Z,9.18
2022-11-25T12:31:05.212Z,9.21
2022-11-25T12:33:21.314Z,9.22
2022-11-25T12:35:39.976Z,9.21
2022-11-25T12:37:44.308Z,9.21
2022-11-25T12:39:55.465Z,9.22
2022-11-25T12:42:02.449Z,9.23
2022-11-25T12:44:19.969Z,9.24
2022-11-25T12:46:53.683Z,9.25
2022-11-25T12:48:57.686Z,9.27
2022-11-25T12:51:16.629Z,9.29
2022-11-25T12:53:36.690Z,9.31
2022-11-25T12:55:41.134Z,9.33
2022-11-25T12:58:04.145Z,9.35
2022-11-25T13:00:43.536Z,9.40
2022-11-25T13:02:59.038Z,9.42
2022-11-25T13:05:43.946Z,9.43
2022-11-25T13:08:24.117Z,9.44
2022-11-25T13:10:31.607Z,9.43
2022-11-25T13:13:17.702Z,9.43
2022-11-25T13:15:27.757Z,9.43
2022-11-25T13:17:32.703Z,9.44
2022-11-25T13:19:36.949Z,9.44
2022-11-25T13:21:55.791Z,9.46
2022-11-25T13:23:58.726Z,9.47
2022-11-25T13:26:37.657Z,9.47
2022-11-25T13:28:39.203Z,9.46
2022-11-25T13:30:40.824Z,9.47
2022-11-25T13:32:42.604Z,9.48
2022-11-25T13:34:44.084Z,9.49
2022-11-25T13:36:49.613Z,9.51
2022-11-25T13:38:51.075Z,9.51
2022-11-25T13:41:01.597Z,9.53
2022-11-25T13:43:03.190Z,9.51
2022-11-25T13:45:05.076Z,9.50
2022-11-25T13:47:36.126Z,9.51
2022-11-25T13:49:49.929Z,9.50
2022-11-25T13:51:54.187Z,9.51
2022-11-25T13:54:07.310Z,9.50
2022-11-25T13:56:26.123Z,9.49
2022-11-25T13:58:31.444Z,9.49
2022-11-25T14:00:35.623Z,9.49
2022-11-25T14:02:45.344Z,9.49
2022-11-25T14:05:09.161Z,9.49
2022-11-25T14:07:19.989Z,9.48
2022-11-25T14:09:37.118Z,9.46
2022-11-25T14:12:23.502Z,9.43
2022-11-25T14:14:52.127Z,9.40
2022-11-25T14:17:11.874Z,9.33
2022-11-25T14:19:50.805Z,9.31
2022-11-25T14:21:50.404Z,9.29
2022-11-25T14:24:22.158Z,9.27
2022-11-25T14:26:48.833Z,9.26
2022-11-25T14:28:53.750Z,9.25
2022-11-25T14:31:00.844Z,9.26
2022-11-25T14:33:05.366Z,9.27
2022-11-25T14:35:15.801Z,9.25
2022-11-25T14:37:29.380Z,9.26
2022-11-25T14:39:42.793Z,9.26
2022-11-25T14:41:52.811Z,9.24
2022-11-25T14:44:00.629Z,9.23
2022-11-25T14:46:15.504Z,9.22
2022-11-25T14:48:21.834Z,9.21
2022-11-25T14:50:34.812Z,9.20
2022-11-25T14:52:37.003Z,9.19
2022-11-25T14:54:43.408Z,9.18
2022-11-25T14:56:46.782Z,9.17
2022-11-25T14:58:50.847Z,9.13
2022-11-25T15:00:58.028Z,9.11
2022-11-25T15:03:02.518Z,9.08
2022-11-25T15:05:22.526Z,9.05
2022-11-25T15:07:30.782Z,9.03
2022-11-25T15:09:42.711Z,9.01
2022-11-25T15:11:44.360Z,9.01
2022-11-25T15:13:48.827Z,8.98
2022-11-25T15:15:52.405Z,8.96
2022-11-25T15:17:55.305Z,8.94
2022-11-25T15:20:01.340Z,8.90
2022-11-25T15:24:29.030Z,8.85
2022-11-25T15:26:33.279Z,8.82
2022-11-25T15:28:38.373Z,8.79
2022-11-25T15:30:39.828Z,8.77
2022-11-25T15:32:41.418Z,8.74
2022-11-25T15:34:44.490Z,8.72
2022-11-25T15:36:51.107Z,8.70
2022-11-25T15:38:55.937Z,8.68
2022-11-25T15:40:57.752Z,8.66
2022-11-25T15:43:02.377Z,8.64
2022-11-25T15:45:17.768Z,8.61
2022-11-25T15:47:23.192Z,8.58
2022-11-25T15:49:25.366Z,8.56
2022-11-25T15:51:49.821Z,8.52
2022-11-25T15:54:05.751Z,8.52
2022-11-25T15:56:11.277Z,8.52
2022-11-25T15:58:20.121Z,8.54
2022-11-25T16:00:23.227Z,8.49
2022-11-25T16:02:40.105Z,8.49
2022-11-25T16:04:41.666Z,8.50
2022-11-25T16:06:54.471Z,8.49
2022-11-25T16:08:57.244Z,8.49
2022-11-25T16:11:09.638Z,8.49
2022-11-25T16:13:23.354Z,8.48
2022-11-25T16:15:46.826Z,8.47
2022-11-25T16:17:48.326Z,8.47
2022-11-25T16:19:49.931Z,8.47
2022-11-25T16:21:55.104Z,8.48
2022-11-25T16:24:08.698Z,8.46
2022-11-25T16:26:13.238Z,8.44
2022-11-25T16:28:22.836Z,8.44
2022-11-25T16:30:24.344Z,8.44
2022-11-25T16:32:28.723Z,8.43
2022-11-25T16:34:30.823Z,8.43
2022-11-25T16:36:32.271Z,8.43
2022-11-25T16:38:33.771Z,8.40
2022-11-25T16:40:39.407Z,8.41
2022-11-25T16:42:41.387Z,8.38
2022-11-25T16:44:47.992Z,8.36
2022-11-25T16:46:49.924Z,8.34
2022-11-25T16:48:54.607Z,8.32
2022-11-25T16:50:56.054Z,8.28
2022-11-25T16:52:57.503Z,8.23
2022-11-25T16:54:58.963Z,8.23
2022-11-25T16:57:00.626Z,8.22
2022-11-25T16:59:03.061Z,8.20
2022-11-25T17:01:04.658Z,8.19
2022-11-25T17:03:12.270Z,8.19
2022-11-25T17:05:19.718Z,8.17
2022-11-25T17:07:38.398Z,8.12
2022-11-25T17:09:40.998Z,8.11
2022-11-25T17:11:46.844Z,8.12
2022-11-25T17:13:51.664Z,8.10
2022-11-25T17:15:53.350Z,8.11
2022-11-25T17:17:55.337Z,8.12
2022-11-25T17:19:56.869Z,8.13
2022-11-25T17:21:58.410Z,8.12
2022-11-25T17:24:02.529Z,8.08
2022-11-25T17:26:04.127Z,8.04
2022-11-25T17:28:05.796Z,8.01
2022-11-25T17:30:16.538Z,8.03
2022-11-25T17:32:18.197Z,8.03
2022-11-25T17:34:19.863Z,8.04
2022-11-25T17:36:22.030Z,8.05
2022-11-25T17:38:23.567Z,8.04
2022-11-25T17:40:25.227Z,8.05
2022-11-25T17:42:33.281Z,8.07
2022-11-25T17:44:35.174Z,8.06
2022-11-25T17:46:36.810Z,8.07
2022-11-25T17:48:42.241Z,8.06
2022-11-25T17:50:43.784Z,8.08
2022-11-25T17:52:45.441Z,8.08
2022-11-25T17:54:46.952Z,8.08
2022-11-25T17:56:52.263Z,8.07
2022-11-25T17:58:54.644Z,8.04
2022-11-25T18:00:56.164Z,8.04
2022-11-25T18:02:57.721Z,8.02
2022-11-25T18:04:59.362Z,7.99
2022-11-25T18:07:01.750Z,8.01
2022-11-25T18:09:03.263Z,8.03
2022-11-25T18:11:07.574Z,8.08
2022-11-25T18:13:10.247Z,8.12
2022-11-25T18:15:20.988Z,8.18
2022-11-25T18:17:22.936Z,8.24
2022-11-25T18:19:24.578Z,8.29
2022-11-25T18:21:26.387Z,8.33
2022-11-25T18:23:27.974Z,8.35
2022-11-25T18:25:32.247Z,8.39
2022-11-25T18:27:33.740Z,8.43
2022-11-25T18:29:35.290Z,8.46
2022-11-25T18:31:36.748Z,8.49
2022-11-25T18:33:38.300Z,8.53
2022-11-25T18:35:40.746Z,8.57
2022-11-25T18:37:42.236Z,8.59
2022-11-25T18:39:43.729Z,8.62
2022-11-25T18:41:47.001Z,8.64
2022-11-25T18:43:48.591Z,8.66
2022-11-25T18:45:51.135Z,8.67
2022-11-25T18:47:53.255Z,8.69
2022-11-25T18:49:56.379Z,8.67
2022-11-25T18:51:58.147Z,8.69
2022-11-25T18:53:59.578Z,8.69
2022-11-25T18:56:01.119Z,8.70
2022-11-25T18:58:03.604Z,8.68
2022-11-25T19:00:31.059Z,8.66
2022-11-25T19:02:29.369Z,8.63
2022-11-25T19:04:30.906Z,8.61
2022-11-25T19:06:32.382Z,8.58
2022-11-25T19:08:33.819Z,8.55
2022-11-25T19:10:37.546Z,8.54
2022-11-25T19:12:40.177Z,8.48
2022-11-25T19:14:42.195Z,8.46
2022-11-25T19:16:43.971Z,8.45
2022-11-25T19:18:47.914Z,8.43
2022-11-25T19:20:49.387Z,8.39
2022-11-25T19:22:50.832Z,8.37
2022-11-25T19:24:52.297Z,8.34
2022-11-25T19:26:56.012Z,8.31
2022-11-25T19:29:07.983Z,8.28
2022-11-25T19:31:10.517Z,8.25
2022-11-25T19:33:29.022Z,8.22
2022-11-25T19:35:37.413Z,8.18
2022-11-25T19:37:39.010Z,8.15
2022-11-25T19:39:40.433Z,8.13
2022-11-25T19:41:41.960Z,8.09
2022-11-25T19:43:43.531Z,8.08
2022-11-25T19:45:45.545Z,8.05
2022-11-25T19:47:50.505Z,8.05
2022-11-25T19:49:56.283Z,8.03
2022-11-25T19:51:57.782Z,8.01
2022-11-25T19:53:59.219Z,7.98
2022-11-25T19:56:04.129Z,7.95
2022-11-25T19:58:05.981Z,7.93
2022-11-25T20:00:09.131Z,7.91
2022-11-25T20:02:20.601Z,7.88
2022-11-25T20:04:22.368Z,7.84
2022-11-25T20:06:24.181Z,7.82
2022-11-25T20:08:28.823Z,7.80
2022-11-25T20:10:31.998Z,7.78
2022-11-25T20:12:33.441Z,7.78
2022-11-25T20:14:35.151Z,7.76
2022-11-25T20:16:40.308Z,7.75
2022-11-25T20:18:42.301Z,7.74
2022-11-25T20:20:45.148Z,7.74
2022-11-25T20:22:57.778Z,7.72
2022-11-25T20:25:02.487Z,7.70
2022-11-25T20:27:04.020Z,7.66
2022-11-25T20:29:15.852Z,7.67
2022-11-25T20:31:17.473Z,7.64
2022-11-25T20:33:23.978Z,7.60
2022-11-25T20:35:26.463Z,7.56
2022-11-25T20:37:40.339Z,7.54
2022-11-25T20:39:44.534Z,7.51
2022-11-25T20:41:48.989Z,7.48
2022-11-25T20:43:51.072Z,7.47
2022-11-25T20:45:52.697Z,7.46
2022-11-25T20:47:54.288Z,7.44
2022-11-25T20:49:55.777Z,7.43
2022-11-25T20:51:57.852Z,7.39
2022-11-25T20:54:02.982Z,7.39
2022-11-25T20:56:05.579Z,7.36
2022-11-25T20:58:28.107Z,7.34
2022-11-25T21:00:29.877Z,7.31
2022-11-25T21:02:31.392Z,7.30
2022-11-25T21:04:32.851Z,7.29
2022-11-25T21:06:40.653Z,7.28
2022-11-25T21:08:45.365Z,7.24
2022-11-25T21:10:47.356Z,7.24
2022-11-25T21:12:48.904Z,7.22
2022-11-25T21:14:50.346Z,7.22
2022-11-25T21:16:51.858Z,7.19
2022-11-25T21:18:53.385Z,7.16
2022-11-25T21:20:56.840Z,7.15
2022-11-25T21:22:59.005Z,7.14
2022-11-25T21:25:01.401Z,7.12
2022-11-25T21:27:13.952Z,7.12
2022-11-25T21:29:17.013Z,7.06
2022-11-25T21:31:21.839Z,7.05
2022-11-25T21:33:23.370Z,7.02
2022-11-25T21:35:34.585Z,6.98
2022-11-25T21:37:36.457Z,6.95
2022-11-25T21:39:38.129Z,6.91
2022-11-25T21:41:39.734Z,6.87
2022-11-25T21:43:48.027Z,6.81
2022-11-25T21:45:53.321Z,6.79
2022-11-25T21:47:54.939Z,6.78
2022-11-25T21:49:56.720Z,6.76
2022-11-25T21:51:58.174Z,6.76
2022-11-25T21:53:59.612Z,6.77
2022-11-25T21:56:01.847Z,6.76
2022-11-25T21:58:03.427Z,6.75
2022-11-25T22:00:17.072Z,6.70
2022-11-25T22:02:21.884Z,6.62
2022-11-25T22:04:24.408Z,6.60
2022-11-25T22:06:29.963Z,6.62
2022-11-25T22:08:31.432Z,6.60
2022-11-25T22:10:32.971Z,6.58
2022-11-25T22:12:39.718Z,6.56
2022-11-25T22:14:42.736Z,6.50
2022-11-25T22:16:44.341Z,6.43
2022-11-25T22:18:45.966Z,6.39
2022-11-25T22:20:52.140Z,6.39
2022-11-25T22:22:55.394Z,6.41
2022-11-25T22:24:56.834Z,6.39
2022-11-25T22:26:58.551Z,6.37
2022-11-25T22:29:02.009Z,6.36
2022-11-25T22:31:07.531Z,6.33
2022-11-25T22:33:09.638Z,6.27
2022-11-25T22:35:20.604Z,6.24
2022-11-25T22:37:24.168Z,6.19
2022-11-25T22:39:26.691Z,6.13
2022-11-25T22:41:28.158Z,6.11
2022-11-25T22:43:34.418Z,6.10
2022-11-25T22:45:35.946Z,6.08
2022-11-25T22:47:44.943Z,6.04
2022-11-25T22:49:47.721Z,5.98
2022-11-25T22:51:49.258Z,5.94
2022-11-25T22:53:50.838Z,5.88
2022-11-25T22:55:58.543Z,5.86
2022-11-25T22:58:01.683Z,5.81
2022-11-25T23:00:04.145Z,5.81
2022-11-25T23:02:05.811Z,5.78
2022-11-25T23:04:15.561Z,5.76
2022-11-25T23:06:17.005Z,5.73
2022-11-25T23:08:21.698Z,5.72
2022-11-25T23:10:28.682Z,5.70
2022-11-25T23:12:30.139Z,5.64
2022-11-25T23:14:31.596Z,5.64
2022-11-25T23:16:33.099Z,5.61
2022-11-25T23:18:44.871Z,5.57
2022-11-25T23:20:48.532Z,5.54
2022-11-25T23:22:50.023Z,5.51
2022-11-25T23:24:51.642Z,5.47
2022-11-25T23:26:53.077Z,5.44
2022-11-25T23:28:55.073Z,5.44
2022-11-25T23:30:58.812Z,5.42
2022-11-25T23:33:01.910Z,5.40
2022-11-25T23:35:03.496Z,5.38
2022-11-25T23:37:04.963Z,5.37
2022-11-25T23:39:06.595Z,5.35
2022-11-25T23:41:15.142Z,5.32
2022-11-25T23:43:17.253Z,5.33
2022-11-25T23:45:20.935Z,5.38
2022-11-25T23:47:23.132Z,5.41
2022-11-25T23:49:35.912Z,5.45
2022-11-25T23:51:37.428Z,5.51
2022-11-25T23:53:41.034Z,5.57
2022-11-25T23:55:42.609Z,5.60
2022-11-25T23:57:47.389Z,5.65
2022-11-25T23:59:49.523Z,5.68
